Time;durP1;ratioP1;P1;durP2;ratioP2;P2;SDS_P1;SDS_P2;PMS_P1;PMS_P2;Temp;Humidity;BMP_temperature;BMP_pressure;BME280_temperature;BME280_humidity;BME280_pressure;Samples;Min_cycle;Max_cycle;Signal;HPM_P1;HPM_P2
2022/05/23 00:01:53;;;;;;;2.17;1.10;;;21.20;60.10;;;;;;5086423;28;20586;-73
2022/05/23 00:04:19;;;;;;;3.97;1.20;;;21.10;59.80;;;;;;5084895;28;20915;-73
2022/05/23 00:06:45;;;;;;;2.00;0.80;;;21.10;60.30;;;;;;5075702;28;20577;-73
2022/05/23 00:09:14;;;;;;;2.20;1.00;;;21.00;59.80;;;;;;5093148;28;20586;-73
2022/05/23 00:11:40;;;;;;;2.50;1.50;;;21.00;60.00;;;;;;5093213;28;20574;-73
2022/05/23 00:14:06;;;;;;;2.03;0.90;;;21.00;61.20;;;;;;5075190;28;20636;-72
2022/05/23 00:16:42;;;;;;;3.80;1.10;;;20.90;60.20;;;;;;5075242;28;20175;-72
2022/05/23 00:19:09;;;;;;;1.87;1.37;;;20.90;60.90;;;;;;5092799;28;20569;-72
2022/05/23 00:21:35;;;;;;;3.37;1.77;;;20.80;60.60;;;;;;5075165;28;20573;-72
2022/05/23 00:24:01;;;;;;;3.30;1.10;;;20.70;61.60;;;;;;5093293;28;20566;-72
2022/05/23 00:26:27;;;;;;;2.50;1.30;;;20.70;61.20;;;;;;5093412;28;20757;-71
2022/05/23 00:28:53;;;;;;;2.23;1.10;;;20.70;61.30;;;;;;5093140;28;20635;-72
2022/05/23 00:31:19;;;;;;;1.50;0.90;;;20.60;61.70;;;;;;5057990;28;20168;-72
2022/05/23 00:36:32;;;;;;;1.90;1.20;;;20.60;62.60;;;;;;5075024;28;20582;-72
2022/05/23 00:38:59;;;;;;;2.40;0.90;;;20.60;62.30;;;;;;5058311;28;21175;-72
2022/05/23 00:44:17;;;;;;;2.53;1.07;;;20.50;62.60;;;;;;5092904;28;20897;-73
2022/05/23 00:47:18;;;;;;;2.63;1.10;;;20.50;63.00;;;;;;5092999;28;20566;-72
2022/05/23 00:49:44;;;;;;;2.30;1.90;;;20.40;63.10;;;;;;5073795;28;20558;-72
2022/05/23 00:52:42;;;;;;;3.40;1.10;;;20.40;64.50;;;;;;5074645;28;20680;-72
2022/05/23 00:55:17;;;;;;;3.60;1.30;;;20.40;64.90;;;;;;5058908;28;20622;-72
2022/05/23 00:57:46;;;;;;;3.40;0.90;;;20.50;64.60;;;;;;5074573;28;20996;-73
2022/05/23 01:00:15;;;;;;;1.80;1.00;;;20.50;64.50;;;;;;5091860;28;20622;-72
2022/05/23 01:02:45;;;;;;;2.00;1.07;;;20.50;64.80;;;;;;5092561;28;20570;-72
2022/05/23 01:05:12;;;;;;;2.57;1.10;;;20.50;64.80;;;;;;5074479;28;20960;-73
2022/05/23 01:07:38;;;;;;;2.17;1.30;;;20.50;65.30;;;;;;5074415;28;20612;-72
2022/05/23 01:10:05;;;;;;;2.53;1.07;;;20.50;65.00;;;;;;5070161;28;20654;-72
2022/05/23 01:12:31;;;;;;;1.97;0.90;;;20.50;65.00;;;;;;5063849;28;20889;-72
2022/05/23 01:14:58;;;;;;;1.90;1.10;;;20.50;65.10;;;;;;5059720;28;20731;-72
2022/05/23 01:17:27;;;;;;;1.83;0.80;;;20.60;65.30;;;;;;5081676;28;20593;-72
2022/05/23 01:19:55;;;;;;;2.73;1.00;;;20.50;66.20;;;;;;5072162;28;20570;-72
2022/05/23 01:22:50;;;;;;;1.83;1.10;;;20.50;65.80;;;;;;5067642;28;20594;-72
2022/05/23 01:25:35;;;;;;;4.73;1.13;;;20.50;66.40;;;;;;5072547;28;20609;-72
2022/05/23 01:28:02;;;;;;;3.80;1.70;;;20.60;67.20;;;;;;5074132;28;20612;-72
2022/05/23 01:30:30;;;;;;;3.60;1.40;;;20.60;66.40;;;;;;5056649;28;20616;-73
2022/05/23 01:33:14;;;;;;;2.40;1.10;;;20.60;67.10;;;;;;5073779;28;20681;-73
2022/05/23 01:35:41;;;;;;;2.60;1.23;;;20.60;67.00;;;;;;5073922;28;20692;-72
2022/05/23 01:38:09;;;;;;;2.00;1.00;;;20.60;66.70;;;;;;5057251;28;20597;-73
2022/05/23 01:40:59;;;;;;;1.93;1.00;;;20.60;67.00;;;;;;5073339;28;20574;-72
2022/05/23 01:43:26;;;;;;;2.07;1.30;;;20.60;67.40;;;;;;5074130;28;20664;-73
2022/05/23 01:46:21;;;;;;;2.00;1.00;;;20.60;67.40;;;;;;5091518;28;20627;-72
2022/05/23 01:49:22;;;;;;;2.30;1.10;;;20.60;67.50;;;;;;5071192;28;20997;-73
2022/05/23 01:51:48;;;;;;;3.93;1.10;;;20.60;67.30;;;;;;5073416;28;20578;-72
2022/05/23 01:54:15;;;;;;;1.90;1.00;;;20.60;67.80;;;;;;5073442;28;20638;-73
2022/05/23 01:56:46;;;;;;;3.00;1.73;;;20.60;67.60;;;;;;5057769;28;20573;-73
2022/05/23 02:02:02;;;;;;;1.97;0.90;;;20.50;67.50;;;;;;5073558;28;20574;-73
2022/05/23 02:04:33;;;;;;;2.30;1.07;;;20.50;67.80;;;;;;5073977;28;21184;-72
2022/05/23 02:06:59;;;;;;;1.60;1.00;;;20.50;68.20;;;;;;5073707;28;20657;-73
2022/05/23 02:09:36;;;;;;;3.30;1.00;;;20.50;68.60;;;;;;5072853;28;20207;-73
2022/05/23 02:12:17;;;;;;;2.27;1.00;;;20.50;68.60;;;;;;5073530;28;20584;-73
2022/05/23 02:14:46;;;;;;;4.20;1.00;;;20.50;68.70;;;;;;5073223;28;20613;-73
2022/05/23 02:17:31;;;;;;;4.43;1.40;;;20.50;68.70;;;;;;5056759;28;20666;-73
2022/05/23 02:19:56;;;;;;;2.30;1.17;;;20.50;68.90;;;;;;5039326;28;20574;-72
2022/05/23 02:22:22;;;;;;;2.87;1.20;;;20.50;69.10;;;;;;5073580;28;20661;-73
2022/05/23 02:24:58;;;;;;;3.83;1.13;;;20.50;69.00;;;;;;5061776;28;20202;-73
2022/05/23 02:27:24;;;;;;;3.87;1.37;;;20.50;69.60;;;;;;5077644;28;20569;-73
2022/05/23 02:29:50;;;;;;;2.20;1.20;;;20.40;70.60;;;;;;5076442;28;20168;-73
2022/05/23 02:32:16;;;;;;;2.33;1.00;;;20.40;70.30;;;;;;5077501;28;21053;-73
2022/05/23 02:34:43;;;;;;;3.87;1.30;;;20.40;70.50;;;;;;5059769;28;20601;-73
2022/05/23 02:37:10;;;;;;;3.60;1.20;;;20.40;70.40;;;;;;5077519;28;20896;-73
2022/05/23 02:39:44;;;;;;;3.50;1.23;;;20.30;71.50;;;;;;5076645;28;20572;-73
2022/05/23 02:42:10;;;;;;;2.07;1.00;;;20.30;70.90;;;;;;5060429;28;20588;-73
2022/05/23 02:44:37;;;;;;;2.70;1.17;;;20.30;72.10;;;;;;5076791;28;20613;-72
2022/05/23 02:47:04;;;;;;;5.17;1.27;;;20.30;71.00;;;;;;5077168;28;20903;-72
2022/05/23 02:49:34;;;;;;;1.87;1.00;;;20.30;71.40;;;;;;5076422;28;20581;-73
2022/05/23 02:52:01;;;;;;;2.80;1.20;;;20.30;71.90;;;;;;5060439;28;20579;-74
2022/05/23 02:54:40;;;;;;;5.17;1.27;;;20.30;71.90;;;;;;5076894;28;20633;-73
2022/05/23 02:57:06;;;;;;;5.93;2.00;;;20.30;71.90;;;;;;5077043;28;20953;-71
2022/05/23 02:59:31;;;;;;;2.20;1.40;;;20.30;72.10;;;;;;5076113;28;20186;-71
2022/05/23 03:04:52;;;;;;;2.53;1.40;;;20.30;72.80;;;;;;5076694;28;20592;-72
2022/05/23 03:07:18;;;;;;;4.50;1.37;;;20.30;72.80;;;;;;5094829;28;20557;-72
2022/05/23 03:09:57;;;;;;;2.20;1.50;;;20.20;73.20;;;;;;5075985;28;20896;-72
2022/05/23 03:12:23;;;;;;;1.73;1.10;;;20.20;73.20;;;;;;5076663;28;20689;-72
2022/05/23 03:14:49;;;;;;;2.50;1.20;;;20.20;73.60;;;;;;5076655;28;20603;-72
2022/05/23 03:17:15;;;;;;;2.90;1.50;;;20.20;74.20;;;;;;5076605;28;20664;-72
2022/05/23 03:19:44;;;;;;;2.83;1.50;;;20.20;74.00;;;;;;5059665;28;20229;-72
2022/05/23 03:27:39;;;;;;;3.03;1.30;;;20.10;74.50;;;;;;5076203;28;20635;-72
2022/05/23 03:30:14;;;;;;;2.50;1.43;;;20.10;75.00;;;;;;5075632;28;20553;-72
2022/05/23 03:32:50;;;;;;;3.03;1.07;;;20.10;76.10;;;;;;5076206;28;20654;-72
2022/05/23 03:35:16;;;;;;;5.37;1.27;;;20.10;75.70;;;;;;5075237;28;20597;-71
2022/05/23 03:37:42;;;;;;;2.47;1.33;;;20.10;75.70;;;;;;5076281;28;20567;-72
2022/05/23 03:40:09;;;;;;;2.50;1.10;;;20.10;76.40;;;;;;5093699;28;20569;-72
2022/05/23 03:42:41;;;;;;;3.30;1.20;;;20.10;76.80;;;;;;5075897;28;20569;-72
2022/05/23 03:45:08;;;;;;;2.10;1.20;;;20.10;77.00;;;;;;5075924;28;20629;-72
2022/05/23 03:47:41;;;;;;;3.30;1.20;;;20.10;76.70;;;;;;5076022;28;20579;-72
2022/05/23 03:50:13;;;;;;;2.53;1.17;;;20.10;76.90;;;;;;5075204;28;20566;-71
2022/05/23 03:52:39;;;;;;;3.37;1.30;;;20.10;77.20;;;;;;5075785;28;20628;-71
2022/05/23 03:55:06;;;;;;;3.30;1.50;;;20.10;77.30;;;;;;5076101;28;20638;-71
2022/05/23 03:57:31;;;;;;;2.73;1.10;;;20.10;77.50;;;;;;5075501;28;20592;-71
2022/05/23 03:59:59;;;;;;;2.37;1.10;;;20.10;78.00;;;;;;5057848;28;20570;-72
2022/05/23 04:02:25;;;;;;;2.13;1.00;;;20.10;77.80;;;;;;5075654;28;20573;-71
2022/05/23 04:04:52;;;;;;;3.17;0.90;;;20.10;78.10;;;;;;5075524;28;20629;-72
2022/05/23 04:07:46;;;;;;;2.90;1.20;;;20.10;78.20;;;;;;5079943;28;20621;-72
2022/05/23 04:10:20;;;;;;;4.90;1.37;;;20.10;78.50;;;;;;5074586;28;20562;-72
2022/05/23 04:12:46;;;;;;;2.03;0.93;;;20.10;78.80;;;;;;5075295;28;20690;-72
2022/05/23 04:15:13;;;;;;;2.87;1.23;;;20.10;79.00;;;;;;5075347;28;20593;-72
2022/05/23 04:17:39;;;;;;;2.33;1.30;;;20.10;79.60;;;;;;5075589;28;20171;-72
2022/05/23 04:20:08;;;;;;;4.57;1.03;;;20.10;80.00;;;;;;5074588;28;20701;-72
2022/05/23 04:22:44;;;;;;;2.70;1.30;;;20.10;79.80;;;;;;5075419;28;20573;-72
2022/05/23 04:25:15;;;;;;;1.93;1.07;;;20.20;80.20;;;;;;5074987;28;20704;-72
2022/05/23 04:27:41;;;;;;;3.20;1.47;;;20.20;80.50;;;;;;5093207;28;20577;-72
2022/05/23 04:30:10;;;;;;;2.47;1.37;;;20.30;80.60;;;;;;5074463;28;20681;-72
2022/05/23 04:35:24;;;;;;;3.33;1.50;;;20.30;80.70;;;;;;5075209;28;20654;-72
2022/05/23 04:37:53;;;;;;;3.63;1.53;;;20.40;81.00;;;;;;5074784;28;20962;-73
2022/05/23 04:40:27;;;;;;;3.73;1.70;;;20.40;81.00;;;;;;5074268;28;20623;-73
2022/05/23 04:42:53;;;;;;;3.20;1.30;;;20.40;81.00;;;;;;5074567;28;20573;-73
2022/05/23 04:45:20;;;;;;;2.00;1.07;;;20.40;81.20;;;;;;5081915;23;20771;-80
2022/05/23 04:50:49;;;;;;;7.40;1.20;;;20.50;81.30;;;;;;5054068;28;20583;-80
2022/05/23 04:53:15;;;;;;;2.53;1.70;;;20.50;81.50;;;;;;5055019;28;20645;-80
2022/05/23 04:56:00;;;;;;;4.00;1.27;;;20.50;81.40;;;;;;5054605;28;20607;-80
2022/05/23 04:58:28;;;;;;;3.40;1.20;;;20.60;81.30;;;;;;5055801;28;20637;-80
2022/05/23 05:00:54;;;;;;;3.20;1.20;;;20.60;81.40;;;;;;5053984;28;20566;-81
2022/05/23 05:03:21;;;;;;;2.73;1.10;;;20.60;81.70;;;;;;5055213;28;20559;-80
2022/05/23 05:05:49;;;;;;;3.00;1.40;;;20.50;81.30;;;;;;5055068;28;21153;-81
2022/05/23 05:08:15;;;;;;;3.30;1.73;;;20.60;81.60;;;;;;5040330;28;20577;-81
2022/05/23 05:10:45;;;;;;;3.97;1.50;;;20.50;81.60;;;;;;5037099;28;20179;-81
2022/05/23 05:13:11;;;;;;;2.67;1.10;;;20.50;81.70;;;;;;5054606;28;20618;-81
2022/05/23 05:15:37;;;;;;;2.60;1.10;;;20.50;82.00;;;;;;5054595;28;20637;-82
2022/05/23 05:18:05;;;;;;;2.00;1.20;;;20.50;81.80;;;;;;5038289;28;21118;-81
2022/05/23 05:20:34;;;;;;;3.27;1.47;;;20.40;82.80;;;;;;5037576;28;20937;-81
2022/05/23 05:23:00;;;;;;;2.93;1.30;;;20.40;82.50;;;;;;5054456;28;20571;-82
2022/05/23 05:25:26;;;;;;;2.70;1.40;;;20.40;83.80;;;;;;5037793;28;20208;-81
2022/05/23 05:27:58;;;;;;;3.67;1.87;;;20.40;82.90;;;;;;5054478;28;20574;-80
2022/05/23 05:30:25;;;;;;;4.83;1.70;;;20.40;83.10;;;;;;5039962;28;20686;-81
2022/05/23 05:33:01;;;;;;;3.73;1.50;;;20.40;83.20;;;;;;5045519;28;20633;-80
2022/05/23 05:35:45;;;;;;;4.20;1.13;;;20.40;83.70;;;;;;5050006;28;20705;-83
2022/05/23 05:38:20;;;;;;;2.00;1.13;;;20.40;83.60;;;;;;5054098;28;20569;-80
2022/05/23 05:40:54;;;;;;;1.90;1.17;;;20.40;84.20;;;;;;5064072;28;20637;-80
2022/05/23 05:43:29;;;;;;;2.80;1.70;;;20.40;84.70;;;;;;5034203;28;20571;-80
2022/05/23 05:46:27;;;;;;;4.90;1.23;;;20.50;84.60;;;;;;5034489;28;21188;-80
2022/05/23 05:49:20;;;;;;;2.73;1.20;;;20.40;84.60;;;;;;5035641;28;20622;-80
2022/05/23 05:51:49;;;;;;;2.90;1.20;;;20.50;84.70;;;;;;5026961;28;20575;-80
2022/05/23 05:54:24;;;;;;;6.17;1.60;;;20.60;84.70;;;;;;5050636;28;20641;-80
2022/05/23 05:57:02;;;;;;;2.90;1.53;;;20.60;84.70;;;;;;5024679;28;20586;-83
2022/05/23 05:59:29;;;;;;;3.10;1.40;;;20.70;85.00;;;;;;5035897;28;20570;-81
2022/05/23 06:01:56;;;;;;;2.43;1.20;;;20.80;85.10;;;;;;5028093;28;20600;-81
2022/05/23 06:04:25;;;;;;;2.73;1.20;;;20.90;85.20;;;;;;5041147;28;20595;-82
2022/05/23 06:12:38;;;;;;;3.90;1.30;;;21.20;85.20;;;;;;5057915;28;20617;-83
2022/05/23 06:15:37;;;;;;;3.73;1.40;;;21.30;85.00;;;;;;5028890;28;20630;-82
2022/05/23 06:18:06;;;;;;;3.00;1.23;;;21.50;84.90;;;;;;5053614;28;20562;-83
2022/05/23 06:20:34;;;;;;;3.30;1.20;;;21.50;84.80;;;;;;5052598;28;20918;-82
2022/05/23 06:23:01;;;;;;;3.47;1.30;;;21.60;84.70;;;;;;5071172;28;20654;-82
2022/05/23 06:25:28;;;;;;;4.90;1.20;;;21.80;84.90;;;;;;5025078;28;20637;-84
2022/05/23 06:27:59;;;;;;;6.60;1.50;;;21.80;84.70;;;;;;5034220;28;20616;-83
2022/05/23 06:30:25;;;;;;;3.50;1.50;;;22.00;84.60;;;;;;5017812;28;21126;-82
2022/05/23 06:33:03;;;;;;;4.13;1.20;;;22.10;83.70;;;;;;5006393;28;20295;-83
2022/05/23 06:35:34;;;;;;;1.90;1.10;;;22.10;83.60;;;;;;5034862;28;20603;-81
2022/05/23 06:38:00;;;;;;;2.30;1.43;;;22.20;84.00;;;;;;5036511;28;20671;-84
2022/05/23 06:40:55;;;;;;;2.40;1.37;;;22.30;84.00;;;;;;5051885;28;20177;-83
2022/05/23 06:43:53;;;;;;;3.50;1.50;;;22.40;83.40;;;;;;5041703;28;20595;-81
2022/05/23 06:46:37;;;;;;;3.00;1.10;;;22.40;82.20;;;;;;5049860;28;21181;-80
2022/05/23 06:49:23;;;;;;;2.67;1.33;;;22.40;82.60;;;;;;5052901;28;21114;-80
2022/05/23 06:52:08;;;;;;;2.60;1.30;;;22.40;82.00;;;;;;5037457;28;20598;-79
2022/05/23 06:54:45;;;;;;;2.20;1.27;;;22.30;81.70;;;;;;5035847;28;20690;-80
2022/05/23 06:57:13;;;;;;;1.83;1.00;;;22.30;81.60;;;;;;5034854;28;20572;-81
2022/05/23 06:59:39;;;;;;;3.17;1.30;;;22.20;81.60;;;;;;5016024;28;20583;-80
2022/05/23 07:02:09;;;;;;;2.70;1.43;;;22.10;81.70;;;;;;5038403;28;20924;-79
2022/05/23 07:13:28;;;;;;;3.80;1.33;;;22.00;82.10;;;;;;5001625;28;20659;-79
2022/05/23 07:15:57;;;;;;;5.00;1.60;;;21.90;82.40;;;;;;5019082;28;20614;-78
2022/05/23 07:18:23;;;;;;;2.50;1.20;;;21.90;82.80;;;;;;5040272;28;21075;-78
2022/05/23 07:20:48;;;;;;;2.27;1.47;;;21.90;83.20;;;;;;5057762;28;20587;-78
2022/05/23 07:23:19;;;;;;;3.77;1.13;;;21.80;83.60;;;;;;5044326;28;20253;-83
2022/05/23 07:25:52;;;;;;;2.10;1.30;;;21.90;84.10;;;;;;5049374;28;20627;-83
2022/05/23 07:28:38;;;;;;;3.43;0.97;;;22.00;84.40;;;;;;5047012;28;20594;-83
2022/05/23 07:31:04;;;;;;;2.20;1.20;;;22.10;84.60;;;;;;5041146;28;20653;-83
2022/05/23 07:33:30;;;;;;;2.73;1.07;;;22.20;84.70;;;;;;5035806;28;21021;-82
2022/05/23 07:35:59;;;;;;;2.83;1.00;;;22.30;84.80;;;;;;5045043;28;21173;-85
2022/05/23 07:38:26;;;;;;;2.10;1.13;;;22.30;84.70;;;;;;5027266;28;20683;-80
2022/05/23 07:40:56;;;;;;;3.40;1.20;;;22.40;84.50;;;;;;5001722;28;20902;-83
2022/05/23 07:43:26;;;;;;;3.07;1.33;;;22.40;84.50;;;;;;5000398;28;20591;-84
2022/05/23 07:45:59;;;;;;;2.77;1.40;;;22.40;84.70;;;;;;5015737;28;20644;-82
2022/05/23 07:48:27;;;;;;;2.73;1.17;;;22.50;84.60;;;;;;5044243;28;20676;-86
2022/05/23 07:50:55;;;;;;;2.50;1.10;;;22.50;84.50;;;;;;5042320;28;20596;-83
2022/05/23 08:01:50;;;;;;;3.10;0.90;;;23.00;85.50;;;;;;5039082;28;20556;-78
2022/05/23 08:04:17;;;;;;;2.30;1.50;;;23.20;85.70;;;;;;5019114;28;20650;-79
2022/05/23 08:06:48;;;;;;;5.37;1.30;;;23.40;85.40;;;;;;5035323;28;20603;-78
2022/05/23 08:09:17;;;;;;;2.33;1.13;;;23.60;84.20;;;;;;5053716;28;20676;-78
2022/05/23 08:11:54;;;;;;;3.50;1.67;;;23.80;84.10;;;;;;5019817;28;20555;-78
2022/05/23 08:14:22;;;;;;;3.90;1.40;;;23.80;82.90;;;;;;5035216;28;20627;-79
2022/05/23 08:16:59;;;;;;;3.17;1.23;;;23.80;82.40;;;;;;5043395;28;20910;-79
2022/05/23 08:19:31;;;;;;;3.67;1.40;;;23.90;82.50;;;;;;5024081;28;20602;-78
2022/05/23 08:22:06;;;;;;;2.20;0.97;;;23.90;82.40;;;;;;5037507;28;20607;-76
2022/05/23 08:24:35;;;;;;;1.97;1.20;;;24.10;81.90;;;;;;5041842;28;20598;-76
2022/05/23 08:27:01;;;;;;;3.77;1.00;;;24.10;82.00;;;;;;5041600;28;20586;-77
2022/05/23 08:29:28;;;;;;;3.30;1.30;;;24.30;82.50;;;;;;5021363;28;20604;-77
2022/05/23 08:32:06;;;;;;;4.77;1.47;;;24.60;82.30;;;;;;5025600;28;20597;-82
2022/05/23 08:34:40;;;;;;;2.60;1.23;;;24.90;82.40;;;;;;5021531;28;20600;-85
2022/05/23 08:37:08;;;;;;;2.13;1.20;;;25.10;82.10;;;;;;5034115;28;20677;-83
2022/05/23 08:39:35;;;;;;;3.80;1.40;;;25.40;82.30;;;;;;5021617;28;20573;-84
2022/05/23 08:42:28;;;;;;;2.70;1.40;;;25.70;80.50;;;;;;5042003;28;20583;-83
2022/05/23 08:45:30;;;;;;;2.90;1.30;;;25.90;78.90;;;;;;5022329;28;21083;-84
2022/05/23 08:48:17;;;;;;;2.97;1.10;;;26.10;77.60;;;;;;5017089;28;20591;-85
2022/05/23 08:51:06;;;;;;;2.63;1.50;;;26.40;78.00;;;;;;5006414;28;20589;-83
2022/05/23 08:53:59;;;;;;;3.50;1.70;;;26.90;78.20;;;;;;5044155;28;20618;-84
2022/05/23 08:56:50;;;;;;;3.20;0.97;;;27.00;74.50;;;;;;5023850;28;20604;-75
2022/05/23 08:59:27;;;;;;;1.80;0.70;;;27.20;75.20;;;;;;5014211;28;20575;-75
2022/05/23 09:02:00;;;;;;;4.23;2.30;;;27.50;75.20;;;;;;5013930;28;20630;-75
2022/05/23 09:04:44;;;;;;;3.60;1.10;;;28.00;73.90;;;;;;5014713;28;20626;-75
2022/05/23 09:07:27;;;;;;;5.63;1.30;;;28.60;73.10;;;;;;5000807;28;20632;-75
2022/05/23 09:09:56;;;;;;;1.93;1.10;;;29.20;67.80;;;;;;5045118;28;20583;-75
2022/05/23 09:12:22;;;;;;;5.40;1.00;;;29.70;69.90;;;;;;5050036;28;20995;-76
2022/05/23 09:14:47;;;;;;;1.80;1.10;;;30.10;66.00;;;;;;5053456;28;20686;-76
2022/05/23 09:17:21;;;;;;;1.97;0.90;;;30.40;64.50;;;;;;5054323;28;20291;-75
2022/05/23 09:20:05;;;;;;;2.78;1.20;;;30.80;65.30;;;;;;5043846;28;21096;-76
2022/05/23 09:22:48;;;;;;;1.87;1.00;;;30.90;58.90;;;;;;5060395;28;20251;-75
2022/05/23 09:25:24;;;;;;;2.63;1.00;;;31.40;60.50;;;;;;5039419;28;20624;-75
2022/05/23 09:28:13;;;;;;;1.93;0.90;;;31.50;57.00;;;;;;5050857;28;20581;-76
2022/05/23 09:30:42;;;;;;;3.80;1.47;;;31.70;58.20;;;;;;5052114;28;20567;-76
2022/05/23 09:33:14;;;;;;;2.43;0.93;;;31.80;57.90;;;;;;5044456;28;20621;-76
2022/05/23 09:35:46;;;;;;;4.93;0.90;;;31.90;56.70;;;;;;5037108;28;20622;-74
2022/05/23 09:38:20;;;;;;;3.20;0.90;;;32.20;57.70;;;;;;5041576;28;20586;-74
2022/05/23 09:47:44;;;;;;;5.93;1.33;;;32.70;58.70;;;;;;5049964;28;20604;-74
2022/05/23 09:49:52;;;;;;;2.13;1.20;;;32.90;53.50;;;;;;5037051;28;20596;-75
2022/05/23 09:52:32;;;;;;;2.37;1.00;;;32.40;52.90;;;;;;5056632;28;20666;-75
2022/05/23 09:55:02;;;;;;;2.13;1.00;;;31.80;51.90;;;;;;5033739;28;20630;-75
2022/05/23 09:57:39;;;;;;;4.70;1.30;;;31.30;52.80;;;;;;5051569;28;20567;-75
2022/05/23 10:00:07;;;;;;;4.90;1.33;;;30.90;53.40;;;;;;5026614;28;21043;-75
2022/05/23 10:02:47;;;;;;;2.17;1.20;;;30.40;53.40;;;;;;5013652;28;20599;-74
2022/05/23 10:05:24;;;;;;;3.83;1.10;;;29.90;54.10;;;;;;5033115;28;20960;-75
2022/05/23 10:07:54;;;;;;;1.90;0.87;;;29.70;55.40;;;;;;5033598;28;21169;-74
2022/05/23 10:10:21;;;;;;;3.20;0.90;;;29.70;55.90;;;;;;5050349;28;21123;-74
2022/05/23 10:13:25;;;;;;;3.00;1.10;;;29.70;56.70;;;;;;5046053;28;20679;-74
2022/05/23 10:15:55;;;;;;;2.43;1.53;;;29.40;55.80;;;;;;5047747;28;20661;-75
2022/05/23 10:18:32;;;;;;;2.10;1.00;;;29.20;56.10;;;;;;5050854;28;20951;-74
2022/05/23 10:21:00;;;;;;;2.90;1.77;;;28.90;56.30;;;;;;5050389;28;20594;-74
2022/05/23 10:23:33;;;;;;;2.77;1.30;;;28.70;56.80;;;;;;5028393;28;20600;-74
2022/05/23 10:26:15;;;;;;;2.73;1.03;;;28.50;57.00;;;;;;5043175;28;20712;-74
2022/05/23 10:28:53;;;;;;;3.93;1.53;;;28.50;57.90;;;;;;5042978;28;20583;-74
2022/05/23 10:31:28;;;;;;;1.93;0.80;;;28.50;58.30;;;;;;5066530;28;20589;-75
2022/05/23 10:34:01;;;;;;;2.43;1.10;;;28.60;58.40;;;;;;5049631;28;20636;-75
2022/05/23 10:36:30;;;;;;;2.13;1.20;;;28.60;58.90;;;;;;5041306;28;20607;-75
2022/05/23 10:42:07;;;;;;;3.40;1.20;;;28.90;59.30;;;;;;5029040;28;21174;-75
2022/05/23 10:45:09;;;;;;;3.10;1.07;;;29.20;59.40;;;;;;5052030;28;20583;-75
2022/05/23 10:47:57;;;;;;;4.23;1.80;;;29.50;59.90;;;;;;5052765;28;20600;-76
2022/05/23 10:50:25;;;;;;;2.40;1.20;;;29.80;59.50;;;;;;5033072;28;20587;-75
2022/05/23 10:52:57;;;;;;;3.60;1.00;;;30.00;59.30;;;;;;5046649;28;21271;-75
2022/05/23 10:55:52;;;;;;;5.03;2.10;;;30.10;58.90;;;;;;5052378;28;20854;-75
2022/05/23 10:58:23;;;;;;;4.23;1.87;;;30.20;58.30;;;;;;5050106;28;20645;-75
2022/05/23 11:01:13;;;;;;;2.23;1.40;;;30.20;58.00;;;;;;5047615;28;20929;-73
2022/05/23 11:04:07;;;;;;;3.30;1.77;;;30.00;58.00;;;;;;5054552;28;20932;-74
2022/05/23 11:06:43;;;;;;;7.20;3.77;;;29.80;58.30;;;;;;5054781;28;20608;-74
2022/05/23 11:09:24;;;;;;;3.20;2.20;;;29.70;58.40;;;;;;5036208;28;20694;-73
2022/05/23 11:12:04;;;;;;;3.97;2.07;;;29.60;58.80;;;;;;5054052;28;20579;-73
2022/05/23 11:15:00;;;;;;;4.00;1.70;;;29.60;59.20;;;;;;5054060;28;21016;-73
2022/05/23 11:17:43;;;;;;;4.27;1.87;;;29.70;59.40;;;;;;5054557;28;20975;-73
2022/05/23 11:20:12;;;;;;;6.20;1.50;;;29.60;59.40;;;;;;5053725;28;20976;-73
2022/05/23 11:22:50;;;;;;;2.53;1.30;;;29.60;59.50;;;;;;5054066;28;20629;-75
2022/05/23 11:25:29;;;;;;;2.90;1.40;;;29.60;59.60;;;;;;5036310;28;20610;-75
2022/05/23 11:34:11;;;;;;;3.10;1.40;;;29.20;60.20;;;;;;5053939;28;20962;-75
2022/05/23 11:36:57;;;;;;;4.43;1.67;;;29.00;60.70;;;;;;5054034;28;20611;-82
2022/05/23 11:39:41;;;;;;;3.63;1.40;;;28.90;61.50;;;;;;5054552;28;20560;-82
2022/05/23 11:42:16;;;;;;;3.00;1.00;;;28.80;62.20;;;;;;5030268;28;20630;-81
2022/05/23 11:44:51;;;;;;;5.10;1.40;;;28.90;63.60;;;;;;5053084;28;20591;-83
2022/05/23 11:47:28;;;;;;;2.53;1.10;;;28.90;63.20;;;;;;5045702;28;20629;-83
2022/05/23 11:50:18;;;;;;;1.90;1.17;;;28.80;63.60;;;;;;5034509;28;20948;-83
2022/05/23 11:53:02;;;;;;;4.80;1.00;;;28.80;64.70;;;;;;5032699;28;20634;-84
2022/05/23 11:55:50;;;;;;;2.53;1.10;;;28.80;64.00;;;;;;5016375;28;20616;-84
2022/05/23 11:58:36;;;;;;;3.90;0.90;;;28.80;64.30;;;;;;5038793;28;20644;-85
2022/05/23 12:01:10;;;;;;;2.53;1.37;;;29.00;64.50;;;;;;5027421;28;20612;-86
2022/05/23 12:03:52;;;;;;;2.97;1.37;;;29.10;64.90;;;;;;5035633;28;21216;-85
2022/05/23 12:06:38;;;;;;;3.07;1.00;;;29.10;65.00;;;;;;5036686;28;20604;-83
2022/05/23 12:09:23;;;;;;;4.90;1.30;;;29.10;65.80;;;;;;5055010;28;20610;-85
2022/05/23 12:11:51;;;;;;;3.63;1.17;;;29.10;65.10;;;;;;5023277;28;20584;-86
2022/05/23 12:14:19;;;;;;;2.67;1.30;;;28.90;65.00;;;;;;5059527;28;20618;-82
2022/05/23 12:16:44;;;;;;;3.00;1.43;;;28.70;65.30;;;;;;5059960;28;20623;-84
2022/05/23 12:19:39;;;;;;;4.03;1.30;;;28.50;65.70;;;;;;5058847;28;20591;-86
2022/05/23 12:22:17;;;;;;;5.63;1.87;;;28.30;67.90;;;;;;5057868;28;20173;-85
2022/05/23 12:25:20;;;;;;;2.67;1.60;;;28.20;68.30;;;;;;5056434;28;20674;-82
2022/05/23 12:27:46;;;;;;;2.73;1.20;;;28.00;70.30;;;;;;5038854;28;21383;-85
2022/05/23 12:30:20;;;;;;;4.13;1.53;;;27.90;69.40;;;;;;5035961;28;20810;-85
2022/05/23 12:33:10;;;;;;;5.30;1.40;;;27.80;70.30;;;;;;5054361;28;20610;-83
2022/05/23 12:35:41;;;;;;;4.50;1.70;;;27.80;70.60;;;;;;5027806;28;20620;-82
2022/05/23 12:38:33;;;;;;;4.93;2.33;;;27.70;71.50;;;;;;5036610;28;20594;-81
2022/05/23 12:41:11;;;;;;;3.30;1.77;;;27.50;72.30;;;;;;5035275;28;20603;-82
2022/05/23 12:43:55;;;;;;;7.47;2.00;;;27.50;72.20;;;;;;5054565;28;20591;-82
2022/05/23 12:46:32;;;;;;;4.50;1.67;;;27.40;73.70;;;;;;5021211;28;20619;-81
2022/05/23 12:49:07;;;;;;;2.30;1.27;;;27.40;74.40;;;;;;5053657;28;20666;-82
2022/05/23 12:52:11;;;;;;;2.33;1.60;;;27.30;74.10;;;;;;5027031;28;20591;-81
2022/05/23 12:54:53;;;;;;;2.90;1.20;;;27.20;74.60;;;;;;5073556;28;20629;-83
2022/05/23 12:57:28;;;;;;;2.90;1.57;;;27.20;75.20;;;;;;5059576;28;20595;-82
2022/05/23 12:59:55;;;;;;;2.60;1.20;;;27.20;75.30;;;;;;5053082;28;20627;-84
2022/05/23 13:02:21;;;;;;;3.90;1.40;;;27.30;75.60;;;;;;5053332;28;21122;-82
2022/05/23 13:05:17;;;;;;;2.50;1.17;;;27.20;75.40;;;;;;5050274;28;20586;-83
2022/05/23 13:07:47;;;;;;;4.63;1.03;;;27.20;76.90;;;;;;5045414;28;20212;-83
2022/05/23 13:10:35;;;;;;;3.20;1.33;;;27.30;75.80;;;;;;5052928;28;20978;-86
2022/05/23 13:13:32;;;;;;;2.90;1.40;;;27.30;76.70;;;;;;5054357;28;21013;-88
2022/05/23 13:16:18;;;;;;;3.37;1.20;;;27.30;78.10;;;;;;5054120;28;20610;-88
2022/05/23 13:27:07;;;;;;;4.37;1.93;;;26.70;81.00;;;;;;5035859;28;20571;-82
2022/05/23 13:29:34;;;;;;;3.97;1.97;;;26.30;84.10;;;;;;5034499;28;20950;-85
2022/05/23 13:32:09;;;;;;;5.47;2.03;;;25.80;85.30;;;;;;5052551;28;20592;-85
2022/05/23 13:34:38;;;;;;;2.33;1.77;;;25.20;89.60;;;;;;5054750;28;20687;-79
2022/05/23 13:37:06;;;;;;;5.20;2.53;;;24.60;93.40;;;;;;5051676;28;20663;-78
2022/05/23 13:39:33;;;;;;;3.97;2.20;;;24.10;93.80;;;;;;5033402;28;20598;-80
2022/05/23 13:42:03;;;;;;;5.17;2.37;;;23.60;94.90;;;;;;5033960;28;20937;-79
2022/05/23 13:44:32;;;;;;;8.47;2.20;;;23.30;96.70;;;;;;5051944;28;20655;-81
2022/05/23 13:47:13;;;;;;;4.40;2.23;;;23.10;99.20;;;;;;5051871;28;20601;-81
2022/05/23 13:49:46;;;;;;;3.40;2.10;;;22.80;99.90;;;;;;5033159;28;20575;-80
2022/05/23 13:52:25;;;;;;;4.40;2.10;;;22.80;99.90;;;;;;5051492;28;20571;-81
2022/05/23 13:55:05;;;;;;;6.33;2.20;;;22.70;99.90;;;;;;5033862;28;20641;-80
2022/05/23 13:57:39;;;;;;;4.20;2.63;;;22.80;99.90;;;;;;5033537;28;21137;-80
2022/05/23 14:00:14;;;;;;;3.23;1.97;;;22.80;99.90;;;;;;5051093;28;20996;-79
2022/05/23 14:02:47;;;;;;;6.07;2.33;;;22.90;99.90;;;;;;5017317;28;20606;-79
2022/05/23 14:05:14;;;;;;;2.70;1.50;;;23.00;99.90;;;;;;5051406;28;20595;-80
2022/05/23 14:07:42;;;;;;;4.43;2.40;;;23.10;99.90;;;;;;5052432;28;20591;-82
2022/05/23 14:10:10;;;;;;;4.57;2.53;;;23.10;99.90;;;;;;5055600;28;20578;-81
2022/05/23 14:12:39;;;;;;;3.93;2.67;;;23.20;99.90;;;;;;5035457;28;20582;-82
2022/05/23 14:15:10;;;;;;;6.10;2.70;;;23.30;99.90;;;;;;5054427;28;20960;-82
2022/05/23 14:17:44;;;;;;;4.37;2.20;;;23.50;99.90;;;;;;5036306;28;20949;-82
2022/05/23 14:20:28;;;;;;;4.33;1.93;;;23.60;99.90;;;;;;5057588;28;20988;-82
2022/05/23 14:23:10;;;;;;;3.10;2.07;;;23.80;99.90;;;;;;5042095;28;20591;-84
2022/05/23 14:25:42;;;;;;;5.60;2.60;;;23.90;99.90;;;;;;5041821;28;21158;-82
2022/05/23 14:28:29;;;;;;;5.40;2.57;;;24.00;99.90;;;;;;5042062;28;20587;-85
2022/05/23 14:30:58;;;;;;;4.47;2.30;;;24.10;99.90;;;;;;5061896;28;20625;-82
2022/05/23 14:33:42;;;;;;;3.77;2.43;;;24.10;99.90;;;;;;5059341;28;20610;-82